ASN logo
Last updated: 15 August 2020
Statuts:Préliminaire
Date:mercredi 10 avril 2019
Heure:20:40
Type/Sous-type:Silhouette image of generic A321 model; specific model in this crash may look slightly different
Airbus A321-231 (WL)
Compagnie:American Airlines
Immatriculation: N114NN
Numéro de série: 6046
Année de Fabrication: 2014-04-04 (5 years )
Moteurs: 2 IAE V2533-A5
Equipage:victimes: 0 / à bord: 8
Passagers:victimes: 0 / à bord: 101
Total:victimes: 0 / à bord: 109
Dégats de l'appareil: Substantiels
Conséquences: Written off (damaged beyond repair)
Lieu de l'accident:New York-John F. Kennedy International Airport, NY (JFK) (   Etats-Unis d'Amérique)
Phase de vol: Au décollage (TOF)
Nature:Transport de Passagers Nat.
Aéroport de départ:New York-John F. Kennedy International Airport, NY (JFK/KJFK), Etats-Unis d'Amérique
Aéroport de destination:Los Angeles International Airport, CA (LAX/KLAX), Etats-Unis d'Amérique
Numéro de vol:AA300
Détails:
American Airlines flight 300, an Airbus A321, returned to New York's JFK Airport after it hit a runway distance marker adjacent to the runway during takeoff. After landing damage was found on the left wing leading edge.
The aircraft took off from runway 31L at 20:40 hours local time (00:40 UTC, April 11) and climbed normally to FL200. About 20:50, the flight contacted the New York Center controller and stated their intentions to return to JFK Airport, citing they had a "strong roll to the left" on departure. The flight crew stated the airplane was "fine" but that they wanted to return to "have it checked out".
A safe landing was made on runway 04L at 21:08.

Accident investigation:
Investigating agency: NTSB
Status: Investigation ongoing

Sources:
» Flightaware track
» ABC7NY

METAR Weather report:
00:51 UTC / 20:51 local time:
KJFK 110051Z 36017KT 10SM SCT250 10/M03 A2998 RMK AO2 SLP153 T01001028

23:51 UTC / 21:51 local time:
KJFK 102351Z 33015KT 10SM FEW070 FEW250 11/M03 A2996 RMK AO2 PK WND 34026/2257 SLP145 T01111028 10161 20111 53034


Photos

photo of Airbus-A321-231-N114NN
accident date: 10-04-2019
type: Airbus A321-231 (WL)
registration: N114NN
photo of Airbus-A321-231-N114NN
accident date: 10-04-2019
type: Airbus A321-231 (WL)
registration: N114NN
 

Plan
Ce plan montre l'aéroport de départ ainsi que la supposée destination du vol. La ligne fixe reliant les deux aéroports n'est pas le plan de vol exact.
La distance entre New York-John F. Kennedy International Airport, NY et Los Angeles International Airport, CA est de 3947 km (2467 miles).

Les informations ci-dessus ne représentent pas l'opinion de la 'Flight Safety Foundation' ou de 'Aviation Safety Network' sur les causes de l'accident. Ces informations prélimimaires sont basées sur les faits tel qu'ils sont connus à ce jour.
languages: languages

Share